sensor_id;sensor_type;location;lat;lon;timestamp;P1;durP1;ratioP1;P2;durP2;ratioP2
11763;SDS011;5939;56.522;14.950;2023-11-21T00:02:19;4.80;;;3.53;;
11763;SDS011;5939;56.522;14.950;2023-11-21T00:04:46;5.63;;;4.10;;
11763;SDS011;5939;56.522;14.950;2023-11-21T00:07:13;4.90;;;4.07;;
11763;SDS011;5939;56.522;14.950;2023-11-21T00:09:39;6.10;;;3.90;;
11763;SDS011;5939;56.522;14.950;2023-11-21T00:12:06;5.27;;;3.80;;
11763;SDS011;5939;56.522;14.950;2023-11-21T00:14:35;5.77;;;4.47;;
11763;SDS011;5939;56.522;14.950;2023-11-21T00:17:04;3.93;;;3.50;;
11763;SDS011;5939;56.522;14.950;2023-11-21T00:19:30;6.17;;;3.83;;
11763;SDS011;5939;56.522;14.950;2023-11-21T00:21:56;4.93;;;3.70;;
11763;SDS011;5939;56.522;14.950;2023-11-21T00:24:23;6.10;;;3.70;;
11763;SDS011;5939;56.522;14.950;2023-11-21T00:26:49;5.83;;;4.20;;
11763;SDS011;5939;56.522;14.950;2023-11-21T00:29:15;4.73;;;3.70;;
11763;SDS011;5939;56.522;14.950;2023-11-21T00:31:42;5.27;;;3.70;;
11763;SDS011;5939;56.522;14.950;2023-11-21T00:34:09;4.83;;;3.53;;
11763;SDS011;5939;56.522;14.950;2023-11-21T00:36:36;6.27;;;3.57;;
11763;SDS011;5939;56.522;14.950;2023-11-21T00:39:02;6.00;;;3.90;;
11763;SDS011;5939;56.522;14.950;2023-11-21T00:41:27;4.37;;;3.70;;
11763;SDS011;5939;56.522;14.950;2023-11-21T00:43:53;3.87;;;3.30;;
11763;SDS011;5939;56.522;14.950;2023-11-21T00:46:20;4.03;;;3.43;;
11763;SDS011;5939;56.522;14.950;2023-11-21T00:48:46;4.33;;;3.20;;
11763;SDS011;5939;56.522;14.950;2023-11-21T00:51:11;5.67;;;3.53;;
11763;SDS011;5939;56.522;14.950;2023-11-21T00:53:37;5.47;;;3.70;;
11763;SDS011;5939;56.522;14.950;2023-11-21T00:56:03;5.07;;;3.93;;
11763;SDS011;5939;56.522;14.950;2023-11-21T00:58:29;6.40;;;4.00;;
11763;SDS011;5939;56.522;14.950;2023-11-21T01:00:55;4.67;;;3.13;;
11763;SDS011;5939;56.522;14.950;2023-11-21T01:03:21;4.60;;;3.50;;
11763;SDS011;5939;56.522;14.950;2023-11-21T01:05:47;5.20;;;4.03;;
11763;SDS011;5939;56.522;14.950;2023-11-21T01:08:15;4.07;;;3.47;;
11763;SDS011;5939;56.522;14.950;2023-11-21T01:10:40;4.23;;;3.20;;
11763;SDS011;5939;56.522;14.950;2023-11-21T01:13:06;5.03;;;3.70;;
11763;SDS011;5939;56.522;14.950;2023-11-21T01:15:32;4.63;;;3.50;;
11763;SDS011;5939;56.522;14.950;2023-11-21T01:17:58;4.73;;;3.57;;
11763;SDS011;5939;56.522;14.950;2023-11-21T01:20:24;5.07;;;3.80;;
11763;SDS011;5939;56.522;14.950;2023-11-21T01:22:51;5.87;;;3.47;;
11763;SDS011;5939;56.522;14.950;2023-11-21T01:25:18;4.50;;;3.90;;
11763;SDS011;5939;56.522;14.950;2023-11-21T01:27:46;4.53;;;4.00;;
11763;SDS011;5939;56.522;14.950;2023-11-21T01:30:12;6.97;;;3.90;;
11763;SDS011;5939;56.522;14.950;2023-11-21T01:32:38;4.90;;;3.60;;
11763;SDS011;5939;56.522;14.950;2023-11-21T01:35:04;4.93;;;3.27;;
11763;SDS011;5939;56.522;14.950;2023-11-21T01:37:31;5.23;;;3.73;;
11763;SDS011;5939;56.522;14.950;2023-11-21T01:39:58;3.50;;;3.20;;
11763;SDS011;5939;56.522;14.950;2023-11-21T01:42:24;4.40;;;3.40;;
11763;SDS011;5939;56.522;14.950;2023-11-21T01:44:50;4.93;;;3.63;;
11763;SDS011;5939;56.522;14.950;2023-11-21T01:47:15;5.20;;;3.57;;
11763;SDS011;5939;56.522;14.950;2023-11-21T01:49:45;5.47;;;3.93;;
11763;SDS011;5939;56.522;14.950;2023-11-21T01:52:11;4.33;;;3.70;;
11763;SDS011;5939;56.522;14.950;2023-11-21T01:54:38;4.67;;;3.40;;
11763;SDS011;5939;56.522;14.950;2023-11-21T01:57:04;4.63;;;3.97;;
11763;SDS011;5939;56.522;14.950;2023-11-21T01:59:37;6.40;;;3.83;;
11763;SDS011;5939;56.522;14.950;2023-11-21T02:02:07;5.33;;;3.40;;
11763;SDS011;5939;56.522;14.950;2023-11-21T02:04:33;4.53;;;3.50;;
11763;SDS011;5939;56.522;14.950;2023-11-21T02:06:59;4.33;;;3.40;;
11763;SDS011;5939;56.522;14.950;2023-11-21T02:09:26;5.20;;;3.77;;
11763;SDS011;5939;56.522;14.950;2023-11-21T02:11:53;6.13;;;3.80;;
11763;SDS011;5939;56.522;14.950;2023-11-21T02:14:19;4.37;;;3.60;;
11763;SDS011;5939;56.522;14.950;2023-11-21T02:16:47;4.23;;;3.50;;
11763;SDS011;5939;56.522;14.950;2023-11-21T02:19:18;5.27;;;3.90;;
11763;SDS011;5939;56.522;14.950;2023-11-21T02:21:50;4.47;;;3.87;;
11763;SDS011;5939;56.522;14.950;2023-11-21T02:24:23;4.47;;;3.53;;
11763;SDS011;5939;56.522;14.950;2023-11-21T02:26:49;4.47;;;3.53;;
11763;SDS011;5939;56.522;14.950;2023-11-21T02:29:18;5.53;;;3.90;;
11763;SDS011;5939;56.522;14.950;2023-11-21T02:31:47;6.53;;;3.53;;
11763;SDS011;5939;56.522;14.950;2023-11-21T02:34:14;4.43;;;3.40;;
11763;SDS011;5939;56.522;14.950;2023-11-21T02:36:41;5.37;;;4.10;;
11763;SDS011;5939;56.522;14.950;2023-11-21T02:39:07;4.87;;;3.90;;
11763;SDS011;5939;56.522;14.950;2023-11-21T02:41:34;4.63;;;3.43;;
11763;SDS011;5939;56.522;14.950;2023-11-21T02:44:00;4.93;;;3.53;;
11763;SDS011;5939;56.522;14.950;2023-11-21T02:46:26;4.63;;;3.57;;
11763;SDS011;5939;56.522;14.950;2023-11-21T02:48:52;4.60;;;3.80;;
11763;SDS011;5939;56.522;14.950;2023-11-21T02:51:20;5.73;;;4.10;;
11763;SDS011;5939;56.522;14.950;2023-11-21T02:53:46;3.97;;;3.53;;
11763;SDS011;5939;56.522;14.950;2023-11-21T02:56:12;3.87;;;3.47;;
11763;SDS011;5939;56.522;14.950;2023-11-21T02:58:39;4.40;;;3.47;;
11763;SDS011;5939;56.522;14.950;2023-11-21T03:01:06;4.87;;;4.30;;
11763;SDS011;5939;56.522;14.950;2023-11-21T03:03:32;5.17;;;3.27;;
11763;SDS011;5939;56.522;14.950;2023-11-21T03:05:58;6.03;;;3.60;;
11763;SDS011;5939;56.522;14.950;2023-11-21T03:08:23;6.03;;;4.07;;
11763;SDS011;5939;56.522;14.950;2023-11-21T03:10:49;5.30;;;4.00;;
11763;SDS011;5939;56.522;14.950;2023-11-21T03:13:15;5.43;;;3.70;;
11763;SDS011;5939;56.522;14.950;2023-11-21T03:15:40;3.60;;;3.13;;
11763;SDS011;5939;56.522;14.950;2023-11-21T03:18:07;4.23;;;3.47;;
11763;SDS011;5939;56.522;14.950;2023-11-21T03:20:33;5.07;;;3.77;;
11763;SDS011;5939;56.522;14.950;2023-11-21T03:22:59;5.00;;;3.60;;
11763;SDS011;5939;56.522;14.950;2023-11-21T03:25:25;5.50;;;3.70;;
11763;SDS011;5939;56.522;14.950;2023-11-21T03:27:52;4.27;;;3.03;;
11763;SDS011;5939;56.522;14.950;2023-11-21T03:30:18;3.53;;;3.23;;
11763;SDS011;5939;56.522;14.950;2023-11-21T03:32:44;4.13;;;3.30;;
11763;SDS011;5939;56.522;14.950;2023-11-21T03:35:10;4.80;;;3.17;;
11763;SDS011;5939;56.522;14.950;2023-11-21T03:37:35;5.10;;;3.87;;
11763;SDS011;5939;56.522;14.950;2023-11-21T03:40:03;4.33;;;3.40;;
11763;SDS011;5939;56.522;14.950;2023-11-21T03:42:29;5.07;;;3.60;;
11763;SDS011;5939;56.522;14.950;2023-11-21T03:44:55;5.23;;;3.93;;
11763;SDS011;5939;56.522;14.950;2023-11-21T03:47:21;4.57;;;3.30;;
11763;SDS011;5939;56.522;14.950;2023-11-21T03:49:46;3.47;;;3.13;;
11763;SDS011;5939;56.522;14.950;2023-11-21T03:52:12;3.70;;;3.40;;
11763;SDS011;5939;56.522;14.950;2023-11-21T03:54:38;4.80;;;4.23;;
11763;SDS011;5939;56.522;14.950;2023-11-21T03:57:03;4.77;;;3.60;;
11763;SDS011;5939;56.522;14.950;2023-11-21T03:59:29;4.37;;;3.20;;
11763;SDS011;5939;56.522;14.950;2023-11-21T04:01:56;3.73;;;3.10;;
11763;SDS011;5939;56.522;14.950;2023-11-21T04:04:22;4.83;;;3.37;;
11763;SDS011;5939;56.522;14.950;2023-11-21T04:06:47;4.37;;;3.60;;
11763;SDS011;5939;56.522;14.950;2023-11-21T04:09:13;4.43;;;3.37;;
11763;SDS011;5939;56.522;14.950;2023-11-21T04:11:39;5.00;;;3.53;;
11763;SDS011;5939;56.522;14.950;2023-11-21T04:14:04;5.13;;;3.23;;
11763;SDS011;5939;56.522;14.950;2023-11-21T04:16:30;3.93;;;3.40;;
11763;SDS011;5939;56.522;14.950;2023-11-21T04:18:56;4.77;;;3.00;;
11763;SDS011;5939;56.522;14.950;2023-11-21T04:21:22;4.87;;;3.70;;
11763;SDS011;5939;56.522;14.950;2023-11-21T04:23:49;3.73;;;3.23;;
11763;SDS011;5939;56.522;14.950;2023-11-21T04:26:14;4.10;;;3.47;;
11763;SDS011;5939;56.522;14.950;2023-11-21T04:28:40;5.37;;;3.43;;
11763;SDS011;5939;56.522;14.950;2023-11-21T04:31:05;5.03;;;3.47;;
11763;SDS011;5939;56.522;14.950;2023-11-21T04:33:32;3.77;;;2.90;;
11763;SDS011;5939;56.522;14.950;2023-11-21T04:35:58;4.10;;;3.10;;
11763;SDS011;5939;56.522;14.950;2023-11-21T04:38:23;4.23;;;3.30;;
11763;SDS011;5939;56.522;14.950;2023-11-21T04:40:49;3.93;;;2.90;;
11763;SDS011;5939;56.522;14.950;2023-11-21T04:43:15;4.00;;;3.10;;
11763;SDS011;5939;56.522;14.950;2023-11-21T04:45:40;3.03;;;2.70;;
11763;SDS011;5939;56.522;14.950;2023-11-21T04:48:07;3.50;;;3.00;;
11763;SDS011;5939;56.522;14.950;2023-11-21T04:50:33;4.57;;;3.50;;
11763;SDS011;5939;56.522;14.950;2023-11-21T04:52:59;3.40;;;3.03;;
11763;SDS011;5939;56.522;14.950;2023-11-21T04:55:25;4.47;;;3.40;;
11763;SDS011;5939;56.522;14.950;2023-11-21T04:57:53;4.20;;;3.40;;
11763;SDS011;5939;56.522;14.950;2023-11-21T05:00:19;4.63;;;3.33;;
11763;SDS011;5939;56.522;14.950;2023-11-21T05:02:46;3.30;;;2.83;;
11763;SDS011;5939;56.522;14.950;2023-11-21T05:05:12;3.90;;;3.10;;
11763;SDS011;5939;56.522;14.950;2023-11-21T05:07:39;4.10;;;3.50;;
11763;SDS011;5939;56.522;14.950;2023-11-21T05:10:06;4.43;;;3.40;;
11763;SDS011;5939;56.522;14.950;2023-11-21T05:12:35;3.43;;;2.97;;
11763;SDS011;5939;56.522;14.950;2023-11-21T05:15:04;5.53;;;3.03;;
11763;SDS011;5939;56.522;14.950;2023-11-21T05:17:37;3.60;;;3.00;;
11763;SDS011;5939;56.522;14.950;2023-11-21T05:20:06;3.57;;;3.00;;
11763;SDS011;5939;56.522;14.950;2023-11-21T05:22:33;3.70;;;3.20;;
11763;SDS011;5939;56.522;14.950;2023-11-21T05:24:59;3.80;;;2.93;;
11763;SDS011;5939;56.522;14.950;2023-11-21T05:27:25;4.47;;;3.13;;
11763;SDS011;5939;56.522;14.950;2023-11-21T05:29:51;4.33;;;3.53;;
11763;SDS011;5939;56.522;14.950;2023-11-21T05:32:16;4.57;;;3.10;;
11763;SDS011;5939;56.522;14.950;2023-11-21T05:34:42;4.60;;;3.20;;
11763;SDS011;5939;56.522;14.950;2023-11-21T05:37:08;3.87;;;3.23;;
11763;SDS011;5939;56.522;14.950;2023-11-21T05:39:34;4.30;;;3.37;;
11763;SDS011;5939;56.522;14.950;2023-11-21T05:42:00;4.00;;;3.40;;
11763;SDS011;5939;56.522;14.950;2023-11-21T05:44:26;4.37;;;3.23;;
11763;SDS011;5939;56.522;14.950;2023-11-21T05:46:52;4.63;;;3.20;;
11763;SDS011;5939;56.522;14.950;2023-11-21T05:49:18;4.77;;;3.33;;
11763;SDS011;5939;56.522;14.950;2023-11-21T05:51:46;4.53;;;3.20;;
11763;SDS011;5939;56.522;14.950;2023-11-21T05:54:12;4.57;;;3.20;;
11763;SDS011;5939;56.522;14.950;2023-11-21T05:56:38;4.50;;;3.40;;
11763;SDS011;5939;56.522;14.950;2023-11-21T05:59:04;4.63;;;3.37;;
11763;SDS011;5939;56.522;14.950;2023-11-21T06:01:29;3.90;;;3.10;;
11763;SDS011;5939;56.522;14.950;2023-11-21T06:03:55;3.47;;;3.07;;
11763;SDS011;5939;56.522;14.950;2023-11-21T06:06:21;4.57;;;3.10;;
11763;SDS011;5939;56.522;14.950;2023-11-21T06:08:51;3.40;;;2.90;;
11763;SDS011;5939;56.522;14.950;2023-11-21T06:11:17;3.77;;;2.93;;
11763;SDS011;5939;56.522;14.950;2023-11-21T06:13:43;3.43;;;2.90;;
11763;SDS011;5939;56.522;14.950;2023-11-21T06:16:09;3.50;;;2.73;;
11763;SDS011;5939;56.522;14.950;2023-11-21T06:18:35;3.53;;;3.00;;
11763;SDS011;5939;56.522;14.950;2023-11-21T06:21:00;3.90;;;3.17;;
11763;SDS011;5939;56.522;14.950;2023-11-21T06:23:26;4.13;;;3.53;;
11763;SDS011;5939;56.522;14.950;2023-11-21T06:25:52;4.70;;;3.77;;
11763;SDS011;5939;56.522;14.950;2023-11-21T06:28:18;5.60;;;3.60;;
11763;SDS011;5939;56.522;14.950;2023-11-21T06:30:43;3.80;;;2.97;;
11763;SDS011;5939;56.522;14.950;2023-11-21T06:33:12;4.23;;;3.33;;
11763;SDS011;5939;56.522;14.950;2023-11-21T06:35:38;3.77;;;3.13;;
11763;SDS011;5939;56.522;14.950;2023-11-21T06:38:03;4.50;;;3.23;;
11763;SDS011;5939;56.522;14.950;2023-11-21T06:40:29;4.50;;;3.30;;
11763;SDS011;5939;56.522;14.950;2023-11-21T06:42:55;4.47;;;3.23;;
11763;SDS011;5939;56.522;14.950;2023-11-21T06:45:20;3.47;;;3.00;;
11763;SDS011;5939;56.522;14.950;2023-11-21T06:47:46;4.10;;;2.90;;
11763;SDS011;5939;56.522;14.950;2023-11-21T06:50:13;4.37;;;3.50;;
11763;SDS011;5939;56.522;14.950;2023-11-21T06:52:39;3.37;;;3.07;;
11763;SDS011;5939;56.522;14.950;2023-11-21T06:55:04;4.53;;;3.40;;
11763;SDS011;5939;56.522;14.950;2023-11-21T06:57:33;3.43;;;3.13;;
11763;SDS011;5939;56.522;14.950;2023-11-21T06:59:58;5.37;;;3.43;;
11763;SDS011;5939;56.522;14.950;2023-11-21T07:02:24;4.40;;;3.40;;
11763;SDS011;5939;56.522;14.950;2023-11-21T07:04:50;4.00;;;3.33;;
11763;SDS011;5939;56.522;14.950;2023-11-21T07:07:16;5.60;;;3.77;;
11763;SDS011;5939;56.522;14.950;2023-11-21T07:09:41;4.27;;;3.70;;
11763;SDS011;5939;56.522;14.950;2023-11-21T07:12:07;6.40;;;4.17;;
11763;SDS011;5939;56.522;14.950;2023-11-21T07:14:33;4.07;;;3.67;;
11763;SDS011;5939;56.522;14.950;2023-11-21T07:16:59;3.53;;;3.10;;
11763;SDS011;5939;56.522;14.950;2023-11-21T07:19:25;4.03;;;3.50;;
11763;SDS011;5939;56.522;14.950;2023-11-21T07:21:51;3.90;;;3.40;;
11763;SDS011;5939;56.522;14.950;2023-11-21T07:24:17;4.23;;;3.50;;
11763;SDS011;5939;56.522;14.950;2023-11-21T07:26:42;5.83;;;3.60;;
11763;SDS011;5939;56.522;14.950;2023-11-21T07:29:08;6.47;;;3.70;;
11763;SDS011;5939;56.522;14.950;2023-11-21T07:31:34;4.80;;;3.53;;
11763;SDS011;5939;56.522;14.950;2023-11-21T07:34:00;4.10;;;3.40;;
11763;SDS011;5939;56.522;14.950;2023-11-21T07:36:26;4.30;;;3.47;;
11763;SDS011;5939;56.522;14.950;2023-11-21T07:38:52;4.93;;;3.63;;
11763;SDS011;5939;56.522;14.950;2023-11-21T07:41:18;4.47;;;3.90;;
11763;SDS011;5939;56.522;14.950;2023-11-21T07:43:44;5.90;;;4.30;;
11763;SDS011;5939;56.522;14.950;2023-11-21T07:46:10;5.20;;;3.87;;
11763;SDS011;5939;56.522;14.950;2023-11-21T07:48:37;4.37;;;3.90;;
11763;SDS011;5939;56.522;14.950;2023-11-21T07:51:03;4.33;;;3.60;;
11763;SDS011;5939;56.522;14.950;2023-11-21T07:53:29;4.93;;;3.83;;
11763;SDS011;5939;56.522;14.950;2023-11-21T07:55:55;4.70;;;3.53;;
11763;SDS011;5939;56.522;14.950;2023-11-21T07:58:22;5.10;;;3.87;;
11763;SDS011;5939;56.522;14.950;2023-11-21T08:00:49;4.90;;;3.73;;
11763;SDS011;5939;56.522;14.950;2023-11-21T08:03:15;4.77;;;3.33;;
11763;SDS011;5939;56.522;14.950;2023-11-21T08:05:41;4.63;;;3.70;;
11763;SDS011;5939;56.522;14.950;2023-11-21T08:08:07;4.40;;;3.90;;
11763;SDS011;5939;56.522;14.950;2023-11-21T08:10:33;4.90;;;3.60;;
11763;SDS011;5939;56.522;14.950;2023-11-21T08:12:58;4.17;;;3.67;;
11763;SDS011;5939;56.522;14.950;2023-11-21T08:15:24;5.00;;;3.93;;
11763;SDS011;5939;56.522;14.950;2023-11-21T08:17:50;4.77;;;3.87;;
11763;SDS011;5939;56.522;14.950;2023-11-21T08:20:15;4.90;;;3.63;;
11763;SDS011;5939;56.522;14.950;2023-11-21T08:22:43;4.77;;;4.10;;
11763;SDS011;5939;56.522;14.950;2023-11-21T08:25:09;4.80;;;3.80;;
11763;SDS011;5939;56.522;14.950;2023-11-21T08:27:35;5.60;;;4.00;;
11763;SDS011;5939;56.522;14.950;2023-11-21T08:30:02;5.37;;;4.00;;
11763;SDS011;5939;56.522;14.950;2023-11-21T08:32:28;4.43;;;3.93;;
11763;SDS011;5939;56.522;14.950;2023-11-21T08:34:58;5.10;;;4.37;;
11763;SDS011;5939;56.522;14.950;2023-11-21T08:37:24;6.73;;;4.40;;
11763;SDS011;5939;56.522;14.950;2023-11-21T08:39:52;5.13;;;4.17;;
11763;SDS011;5939;56.522;14.950;2023-11-21T08:42:18;3.70;;;3.40;;
11763;SDS011;5939;56.522;14.950;2023-11-21T08:44:44;4.67;;;3.97;;
11763;SDS011;5939;56.522;14.950;2023-11-21T08:47:10;4.57;;;4.03;;
11763;SDS011;5939;56.522;14.950;2023-11-21T08:49:35;5.50;;;4.10;;
11763;SDS011;5939;56.522;14.950;2023-11-21T08:52:01;5.40;;;4.07;;
11763;SDS011;5939;56.522;14.950;2023-11-21T08:54:27;4.63;;;3.67;;
11763;SDS011;5939;56.522;14.950;2023-11-21T08:56:53;6.03;;;3.50;;
11763;SDS011;5939;56.522;14.950;2023-11-21T08:59:20;5.33;;;4.10;;
11763;SDS011;5939;56.522;14.950;2023-11-21T09:01:46;4.60;;;4.10;;
11763;SDS011;5939;56.522;14.950;2023-11-21T09:04:12;5.00;;;4.03;;
11763;SDS011;5939;56.522;14.950;2023-11-21T09:06:38;3.87;;;3.47;;
11763;SDS011;5939;56.522;14.950;2023-11-21T09:09:04;4.87;;;3.40;;
11763;SDS011;5939;56.522;14.950;2023-11-21T09:11:31;4.60;;;3.80;;
11763;SDS011;5939;56.522;14.950;2023-11-21T09:13:59;4.43;;;3.73;;
11763;SDS011;5939;56.522;14.950;2023-11-21T09:16:25;4.43;;;3.50;;
11763;SDS011;5939;56.522;14.950;2023-11-21T09:18:51;4.63;;;3.47;;
11763;SDS011;5939;56.522;14.950;2023-11-21T09:21:17;4.70;;;3.47;;
11763;SDS011;5939;56.522;14.950;2023-11-21T09:23:44;4.00;;;3.47;;
11763;SDS011;5939;56.522;14.950;2023-11-21T09:26:10;4.07;;;3.60;;
11763;SDS011;5939;56.522;14.950;2023-11-21T09:28:35;3.40;;;3.10;;
11763;SDS011;5939;56.522;14.950;2023-11-21T09:31:06;3.73;;;3.33;;
11763;SDS011;5939;56.522;14.950;2023-11-21T09:33:34;4.53;;;3.37;;
11763;SDS011;5939;56.522;14.950;2023-11-21T09:36:00;4.60;;;3.60;;
11763;SDS011;5939;56.522;14.950;2023-11-21T09:38:26;3.93;;;3.10;;
11763;SDS011;5939;56.522;14.950;2023-11-21T09:40:53;4.07;;;3.60;;
11763;SDS011;5939;56.522;14.950;2023-11-21T09:43:20;5.60;;;3.70;;
11763;SDS011;5939;56.522;14.950;2023-11-21T09:45:47;4.40;;;3.30;;
11763;SDS011;5939;56.522;14.950;2023-11-21T09:48:19;4.53;;;3.60;;
11763;SDS011;5939;56.522;14.950;2023-11-21T09:50:46;4.47;;;3.47;;
11763;SDS011;5939;56.522;14.950;2023-11-21T09:53:13;6.63;;;4.97;;
11763;SDS011;5939;56.522;14.950;2023-11-21T09:55:44;7.70;;;4.53;;
11763;SDS011;5939;56.522;14.950;2023-11-21T09:58:11;7.33;;;4.20;;
11763;SDS011;5939;56.522;14.950;2023-11-21T10:00:42;5.17;;;3.97;;
11763;SDS011;5939;56.522;14.950;2023-11-21T10:03:09;7.17;;;4.70;;
11763;SDS011;5939;56.522;14.950;2023-11-21T10:05:35;6.13;;;4.20;;
11763;SDS011;5939;56.522;14.950;2023-11-21T10:08:02;5.13;;;3.93;;
11763;SDS011;5939;56.522;14.950;2023-11-21T10:10:35;5.70;;;4.07;;
11763;SDS011;5939;56.522;14.950;2023-11-21T10:13:02;5.50;;;3.97;;
11763;SDS011;5939;56.522;14.950;2023-11-21T10:15:35;7.47;;;5.03;;
11763;SDS011;5939;56.522;14.950;2023-11-21T10:18:02;8.67;;;5.30;;
11763;SDS011;5939;56.522;14.950;2023-11-21T10:20:30;6.37;;;3.70;;
11763;SDS011;5939;56.522;14.950;2023-11-21T10:22:56;6.00;;;3.90;;
11763;SDS011;5939;56.522;14.950;2023-11-21T10:25:22;5.20;;;4.13;;
11763;SDS011;5939;56.522;14.950;2023-11-21T10:27:48;5.10;;;3.73;;
11763;SDS011;5939;56.522;14.950;2023-11-21T10:30:17;5.70;;;3.63;;
11763;SDS011;5939;56.522;14.950;2023-11-21T10:32:43;4.80;;;3.60;;
11763;SDS011;5939;56.522;14.950;2023-11-21T10:35:09;4.30;;;3.57;;
11763;SDS011;5939;56.522;14.950;2023-11-21T10:37:39;5.17;;;3.80;;
11763;SDS011;5939;56.522;14.950;2023-11-21T10:40:08;4.73;;;3.43;;
11763;SDS011;5939;56.522;14.950;2023-11-21T10:42:38;4.40;;;3.43;;
11763;SDS011;5939;56.522;14.950;2023-11-21T10:45:07;5.80;;;3.97;;
11763;SDS011;5939;56.522;14.950;2023-11-21T10:47:42;3.63;;;3.10;;
11763;SDS011;5939;56.522;14.950;2023-11-21T10:50:08;4.10;;;3.20;;
11763;SDS011;5939;56.522;14.950;2023-11-21T10:52:39;4.17;;;3.40;;
11763;SDS011;5939;56.522;14.950;2023-11-21T10:55:17;4.40;;;3.30;;
11763;SDS011;5939;56.522;14.950;2023-11-21T10:57:46;3.40;;;2.90;;
11763;SDS011;5939;56.522;14.950;2023-11-21T11:00:14;3.93;;;3.23;;
11763;SDS011;5939;56.522;14.950;2023-11-21T11:02:45;3.47;;;2.83;;
11763;SDS011;5939;56.522;14.950;2023-11-21T11:05:15;4.10;;;3.27;;
11763;SDS011;5939;56.522;14.950;2023-11-21T11:07:44;3.43;;;2.90;;
11763;SDS011;5939;56.522;14.950;2023-11-21T11:10:13;4.80;;;3.40;;
11763;SDS011;5939;56.522;14.950;2023-11-21T11:12:40;3.27;;;2.93;;
11763;SDS011;5939;56.522;14.950;2023-11-21T11:15:07;4.33;;;3.20;;
11763;SDS011;5939;56.522;14.950;2023-11-21T11:17:35;3.83;;;2.87;;
11763;SDS011;5939;56.522;14.950;2023-11-21T11:20:07;4.13;;;3.37;;
11763;SDS011;5939;56.522;14.950;2023-11-21T11:25:30;3.63;;;2.90;;
11763;SDS011;5939;56.522;14.950;2023-11-21T11:28:04;3.87;;;3.00;;
11763;SDS011;5939;56.522;14.950;2023-11-21T11:33:43;3.30;;;3.00;;
11763;SDS011;5939;56.522;14.950;2023-11-21T11:36:13;3.00;;;2.60;;
11763;SDS011;5939;56.522;14.950;2023-11-21T11:38:44;2.63;;;2.43;;
11763;SDS011;5939;56.522;14.950;2023-11-21T11:41:11;3.53;;;3.00;;
11763;SDS011;5939;56.522;14.950;2023-11-21T11:43:37;3.20;;;2.77;;
11763;SDS011;5939;56.522;14.950;2023-11-21T11:46:09;4.10;;;3.30;;
11763;SDS011;5939;56.522;14.950;2023-11-21T11:48:38;3.23;;;2.83;;
11763;SDS011;5939;56.522;14.950;2023-11-21T11:51:11;3.23;;;2.53;;
11763;SDS011;5939;56.522;14.950;2023-11-21T11:53:43;4.97;;;2.50;;
11763;SDS011;5939;56.522;14.950;2023-11-21T11:56:21;2.60;;;2.40;;
11763;SDS011;5939;56.522;14.950;2023-11-21T11:59:00;3.07;;;2.73;;
11763;SDS011;5939;56.522;14.950;2023-11-21T12:01:30;3.57;;;2.73;;
11763;SDS011;5939;56.522;14.950;2023-11-21T12:06:59;2.53;;;2.33;;
11763;SDS011;5939;56.522;14.950;2023-11-21T12:09:28;2.80;;;2.53;;
11763;SDS011;5939;56.522;14.950;2023-11-21T12:11:56;3.63;;;3.00;;
11763;SDS011;5939;56.522;14.950;2023-11-21T12:14:22;4.63;;;3.03;;
11763;SDS011;5939;56.522;14.950;2023-11-21T12:16:48;2.50;;;2.30;;
11763;SDS011;5939;56.522;14.950;2023-11-21T12:19:14;2.90;;;2.60;;
11763;SDS011;5939;56.522;14.950;2023-11-21T12:21:40;3.27;;;2.70;;
11763;SDS011;5939;56.522;14.950;2023-11-21T12:24:13;3.43;;;2.53;;
11763;SDS011;5939;56.522;14.950;2023-11-21T12:26:41;4.40;;;2.70;;
11763;SDS011;5939;56.522;14.950;2023-11-21T12:29:07;4.03;;;2.60;;
11763;SDS011;5939;56.522;14.950;2023-11-21T12:31:33;4.50;;;2.57;;
11763;SDS011;5939;56.522;14.950;2023-11-21T12:33:59;2.97;;;2.57;;
11763;SDS011;5939;56.522;14.950;2023-11-21T12:36:25;3.40;;;2.47;;
11763;SDS011;5939;56.522;14.950;2023-11-21T12:38:51;3.20;;;2.47;;
11763;SDS011;5939;56.522;14.950;2023-11-21T12:41:17;3.20;;;2.80;;
11763;SDS011;5939;56.522;14.950;2023-11-21T12:43:43;3.67;;;2.90;;
11763;SDS011;5939;56.522;14.950;2023-11-21T12:46:12;2.77;;;2.57;;
11763;SDS011;5939;56.522;14.950;2023-11-21T12:48:39;3.57;;;2.30;;
11763;SDS011;5939;56.522;14.950;2023-11-21T12:51:09;3.23;;;2.40;;
11763;SDS011;5939;56.522;14.950;2023-11-21T12:53:37;3.23;;;2.83;;
11763;SDS011;5939;56.522;14.950;2023-11-21T12:56:07;3.13;;;2.50;;
11763;SDS011;5939;56.522;14.950;2023-11-21T12:58:35;2.50;;;2.30;;
11763;SDS011;5939;56.522;14.950;2023-11-21T13:01:02;2.70;;;2.50;;
11763;SDS011;5939;56.522;14.950;2023-11-21T13:03:30;2.60;;;2.40;;
11763;SDS011;5939;56.522;14.950;2023-11-21T13:05:57;3.27;;;2.73;;
11763;SDS011;5939;56.522;14.950;2023-11-21T13:08:24;2.73;;;2.53;;
11763;SDS011;5939;56.522;14.950;2023-11-21T13:10:52;3.03;;;2.60;;
11763;SDS011;5939;56.522;14.950;2023-11-21T13:13:21;3.00;;;2.50;;
11763;SDS011;5939;56.522;14.950;2023-11-21T13:15:52;2.53;;;2.23;;
11763;SDS011;5939;56.522;14.950;2023-11-21T13:18:25;2.80;;;2.60;;
11763;SDS011;5939;56.522;14.950;2023-11-21T13:20:56;2.73;;;2.20;;
11763;SDS011;5939;56.522;14.950;2023-11-21T13:23:24;2.80;;;2.47;;
11763;SDS011;5939;56.522;14.950;2023-11-21T13:25:50;2.67;;;2.47;;
11763;SDS011;5939;56.522;14.950;2023-11-21T13:28:20;3.63;;;2.60;;
11763;SDS011;5939;56.522;14.950;2023-11-21T13:30:47;2.90;;;2.60;;
11763;SDS011;5939;56.522;14.950;2023-11-21T13:33:13;2.90;;;2.60;;
11763;SDS011;5939;56.522;14.950;2023-11-21T13:35:42;2.83;;;2.53;;
11763;SDS011;5939;56.522;14.950;2023-11-21T13:38:16;2.63;;;2.37;;
11763;SDS011;5939;56.522;14.950;2023-11-21T13:40:49;2.77;;;2.40;;
11763;SDS011;5939;56.522;14.950;2023-11-21T13:43:18;3.33;;;2.40;;
11763;SDS011;5939;56.522;14.950;2023-11-21T13:45:46;2.50;;;2.30;;
11763;SDS011;5939;56.522;14.950;2023-11-21T13:48:20;3.03;;;2.47;;
11763;SDS011;5939;56.522;14.950;2023-11-21T13:50:53;2.80;;;2.50;;
11763;SDS011;5939;56.522;14.950;2023-11-21T13:53:33;3.10;;;2.80;;
11763;SDS011;5939;56.522;14.950;2023-11-21T13:56:02;2.70;;;2.40;;
11763;SDS011;5939;56.522;14.950;2023-11-21T13:58:29;3.47;;;2.50;;
11763;SDS011;5939;56.522;14.950;2023-11-21T14:01:09;3.23;;;2.47;;
11763;SDS011;5939;56.522;14.950;2023-11-21T14:03:59;3.23;;;2.33;;
11763;SDS011;5939;56.522;14.950;2023-11-21T14:06:34;2.67;;;2.30;;
11763;SDS011;5939;56.522;14.950;2023-11-21T14:09:10;2.90;;;2.60;;
11763;SDS011;5939;56.522;14.950;2023-11-21T14:11:39;3.50;;;2.30;;
11763;SDS011;5939;56.522;14.950;2023-11-21T14:14:04;2.57;;;2.30;;
11763;SDS011;5939;56.522;14.950;2023-11-21T14:16:30;3.10;;;2.33;;
11763;SDS011;5939;56.522;14.950;2023-11-21T14:18:56;3.10;;;2.70;;
11763;SDS011;5939;56.522;14.950;2023-11-21T14:21:28;2.63;;;2.30;;
11763;SDS011;5939;56.522;14.950;2023-11-21T14:23:54;2.50;;;2.23;;
11763;SDS011;5939;56.522;14.950;2023-11-21T14:26:20;5.00;;;2.60;;
11763;SDS011;5939;56.522;14.950;2023-11-21T14:28:46;2.73;;;2.43;;
11763;SDS011;5939;56.522;14.950;2023-11-21T14:31:14;2.93;;;2.23;;
11763;SDS011;5939;56.522;14.950;2023-11-21T14:33:42;2.83;;;2.37;;
11763;SDS011;5939;56.522;14.950;2023-11-21T14:36:09;3.00;;;2.57;;
11763;SDS011;5939;56.522;14.950;2023-11-21T14:38:35;3.30;;;2.63;;
11763;SDS011;5939;56.522;14.950;2023-11-21T14:41:02;3.37;;;2.80;;
11763;SDS011;5939;56.522;14.950;2023-11-21T14:43:29;3.63;;;2.57;;
11763;SDS011;5939;56.522;14.950;2023-11-21T14:45:59;2.50;;;2.30;;
11763;SDS011;5939;56.522;14.950;2023-11-21T14:48:24;3.97;;;2.70;;
11763;SDS011;5939;56.522;14.950;2023-11-21T14:51:12;3.20;;;2.43;;
11763;SDS011;5939;56.522;14.950;2023-11-21T14:53:53;3.70;;;3.33;;
11763;SDS011;5939;56.522;14.950;2023-11-21T14:56:22;3.23;;;2.93;;
11763;SDS011;5939;56.522;14.950;2023-11-21T14:58:59;2.80;;;2.50;;